Time;durP1;ratioP1;P1;durP2;ratioP2;P2;SDS_P1;SDS_P2;PMS_P1;PMS_P2;Temp;Humidity;BMP_temperature;BMP_pressure;BME280_temperature;BME280_humidity;BME280_pressure;Samples;Min_cycle;Max_cycle;Signal;HPM_P1;HPM_P2
2022/07/01 00:00:19;;;;;;;;;;;;;;;;;;5066012;28;19920;-87
2022/07/01 00:03:05;;;;;;;;;;;;;;;;;;5068470;28;19908;-87
2022/07/01 00:05:51;;;;;;;;;;;;;;;;;;5061322;28;19917;-87
2022/07/01 00:08:38;;;;;;;;;;;;;;;;;;5062166;28;19916;-86
2022/07/01 00:11:24;;;;;;;;;;;;;;;;;;5060715;28;19915;-85
2022/07/01 00:14:11;;;;;;;;;;;;;;;;;;5063646;28;19935;-86
2022/07/01 00:16:57;;;;;;;;;;;;;;;;;;5062819;28;19919;-85
2022/07/01 00:19:44;;;;;;;;;;;;;;;;;;5066409;28;19912;-85
2022/07/01 00:22:30;;;;;;;;;;;;;;;;;;5060953;28;19923;-84
2022/07/01 00:25:17;;;;;;;;;;;;;;;;;;5077010;28;19950;-83
2022/07/01 00:28:03;;;;;;;;;;;;;;;;;;5067296;28;19940;-83
2022/07/01 00:30:50;;;;;;;;;;;;;;;;;;5041340;28;19916;-83
2022/07/01 00:33:36;;;;;;;;;;;;;;;;;;5068699;28;19909;-84
2022/07/01 00:36:23;;;;;;;;;;;;;;;;;;5051718;28;20521;-84
2022/07/01 00:39:09;;;;;;;;;;;;;;;;;;5060191;28;20348;-84
2022/07/01 00:41:56;;;;;;;;;;;;;;;;;;5038273;28;19917;-84
2022/07/01 00:44:42;;;;;;;;;;;;;;;;;;5055832;28;20364;-84
2022/07/01 00:47:28;;;;;;;;;;;;;;;;;;5042540;28;19912;-84
2022/07/01 00:50:15;;;;;;;;;;;;;;;;;;5062304;28;20382;-84
2022/07/01 00:53:01;;;;;;;;;;;;;;;;;;5054644;28;19908;-83
2022/07/01 00:55:49;;;;;;;;;;;;;;;;;;5068979;28;19912;-85
2022/07/01 00:58:37;;;;;;;;;;;;;;;;;;5065724;28;19914;-85
2022/07/01 01:01:23;;;;;;;;;;;;;;;;;;5076860;28;19908;-84
2022/07/01 01:04:10;;;;;;;;;;;;;;;;;;5067533;28;19919;-84
2022/07/01 01:06:56;;;;;;;;;;;;;;;;;;5068228;28;19924;-85
2022/07/01 01:09:43;;;;;;;;;;;;;;;;;;5068408;28;20504;-85
2022/07/01 01:12:29;;;;;;;;;;;;;;;;;;5069010;28;19909;-85
2022/07/01 01:15:15;;;;;;;;;;;;;;;;;;5069417;28;19915;-84
2022/07/01 01:18:02;;;;;;;;;;;;;;;;;;5064247;28;19908;-85
2022/07/01 01:20:48;;;;;;;;;;;;;;;;;;5064735;28;19923;-84
2022/07/01 01:23:35;;;;;;;;;;;;;;;;;;5061823;28;20427;-85
2022/07/01 01:26:21;;;;;;;;;;;;;;;;;;5067463;28;19916;-85
2022/07/01 01:29:08;;;;;;;;;;;;;;;;;;5060408;28;19931;-85
2022/07/01 01:31:54;;;;;;;;;;;;;;;;;;5049364;28;19908;-85
2022/07/01 01:34:41;;;;;;;;;;;;;;;;;;5042673;28;19909;-85
2022/07/01 01:37:27;;;;;;;;;;;;;;;;;;5049365;28;19913;-85
2022/07/01 01:40:14;;;;;;;;;;;;;;;;;;5059873;28;19916;-85
2022/07/01 01:43:00;;;;;;;;;;;;;;;;;;5069518;28;19919;-85
2022/07/01 01:45:47;;;;;;;;;;;;;;;;;;5056659;28;19912;-85
2022/07/01 01:48:33;;;;;;;;;;;;;;;;;;5050334;28;19943;-85
2022/07/01 01:51:20;;;;;;;;;;;;;;;;;;5068227;28;19920;-84
2022/07/01 01:54:07;;;;;;;;;;;;;;;;;;5042094;28;19913;-85
2022/07/01 01:56:53;;;;;;;;;;;;;;;;;;5063786;28;19942;-86
2022/07/01 01:59:40;;;;;;;;;;;;;;;;;;5063451;28;19913;-86
2022/07/01 02:02:26;;;;;;;;;;;;;;;;;;5068501;28;19908;-86
2022/07/01 02:05:13;;;;;;;;;;;;;;;;;;5065423;28;19908;-86
2022/07/01 02:07:59;;;;;;;;;;;;;;;;;;5070138;28;19921;-86
2022/07/01 02:10:46;;;;;;;;;;;;;;;;;;5054833;28;19908;-86
2022/07/01 02:13:32;;;;;;;;;;;;;;;;;;5073013;28;20385;-86
2022/07/01 02:16:18;;;;;;;;;;;;;;;;;;5068407;28;19922;-85
2022/07/01 02:19:05;;;;;;;;;;;;;;;;;;5060811;28;19920;-85
2022/07/01 02:21:52;;;;;;;;;;;;;;;;;;5053123;28;19916;-84
2022/07/01 02:24:38;;;;;;;;;;;;;;;;;;5075099;28;19916;-85
2022/07/01 02:27:25;;;;;;;;;;;;;;;;;;5061184;28;20285;-84
2022/07/01 02:30:11;;;;;;;;;;;;;;;;;;5072891;28;19918;-85
2022/07/01 02:32:57;;;;;;;;;;;;;;;;;;5058521;28;20432;-86
2022/07/01 02:35:44;;;;;;;;;;;;;;;;;;5072540;28;19916;-87
2022/07/01 02:38:30;;;;;;;;;;;;;;;;;;5063985;28;19915;-85
2022/07/01 02:41:17;;;;;;;;;;;;;;;;;;5062115;28;19931;-85
2022/07/01 02:44:03;;;;;;;;;;;;;;;;;;5066363;28;19919;-86
2022/07/01 02:46:50;;;;;;;;;;;;;;;;;;5071107;28;19919;-86
2022/07/01 02:49:36;;;;;;;;;;;;;;;;;;5065641;28;19921;-86
2022/07/01 02:52:23;;;;;;;;;;;;;;;;;;5053386;28;19913;-86
2022/07/01 02:55:09;;;;;;;;;;;;;;;;;;5063393;28;20269;-86
2022/07/01 02:57:56;;;;;;;;;;;;;;;;;;5063531;28;20292;-86
2022/07/01 03:00:42;;;;;;;;;;;;;;;;;;5060492;28;19908;-85
2022/07/01 03:03:29;;;;;;;;;;;;;;;;;;5071582;28;20296;-86
2022/07/01 03:06:15;;;;;;;;;;;;;;;;;;5073082;28;19920;-86
2022/07/01 03:09:02;;;;;;;;;;;;;;;;;;5072178;28;19916;-85
2022/07/01 03:11:49;;;;;;;;;;;;;;;;;;5061612;28;19935;-86
2022/07/01 03:14:35;;;;;;;;;;;;;;;;;;5064401;28;20254;-83
2022/07/01 03:17:22;;;;;;;;;;;;;;;;;;5066956;28;19912;-85
2022/07/01 03:20:08;;;;;;;;;;;;;;;;;;5046719;28;20292;-88
2022/07/01 03:22:55;;;;;;;;;;;;;;;;;;5064560;28;19916;-87
2022/07/01 03:25:41;;;;;;;;;;;;;;;;;;5068600;28;19909;-86
2022/07/01 03:28:28;;;;;;;;;;;;;;;;;;5074825;28;19944;-87
2022/07/01 03:31:14;;;;;;;;;;;;;;;;;;5052153;28;19916;-87
2022/07/01 03:34:01;;;;;;;;;;;;;;;;;;5067029;28;20439;-87
2022/07/01 03:36:47;;;;;;;;;;;;;;;;;;5057245;28;19909;-86
2022/07/01 03:39:34;;;;;;;;;;;;;;;;;;5072634;28;20390;-87
2022/07/01 03:42:20;;;;;;;;;;;;;;;;;;5072133;28;19920;-87
2022/07/01 03:45:07;;;;;;;;;;;;;;;;;;5059271;28;19927;-86
2022/07/01 03:47:53;;;;;;;;;;;;;;;;;;5062590;28;19927;-86
2022/07/01 03:50:40;;;;;;;;;;;;;;;;;;5073210;28;20348;-88
2022/07/01 03:56:31;;;;;;;;;;;;;;;;;;5073149;28;20371;-87
2022/07/01 03:59:18;;;;;;;;;;;;;;;;;;5064226;28;19909;-87
2022/07/01 04:02:04;;;;;;;;;;;;;;;;;;5071567;28;19921;-87
2022/07/01 04:04:50;;;;;;;;;;;;;;;;;;5069788;28;19927;-88
2022/07/01 04:07:37;;;;;;;;;;;;;;;;;;5056243;28;20308;-88
2022/07/01 04:10:23;;;;;;;;;;;;;;;;;;5073610;28;19916;-87
2022/07/01 04:13:10;;;;;;;;;;;;;;;;;;5076082;28;20253;-87
2022/07/01 04:15:56;;;;;;;;;;;;;;;;;;5052615;28;19958;-89
2022/07/01 04:18:43;;;;;;;;;;;;;;;;;;5060734;28;19908;-87
2022/07/01 04:24:35;;;;;;;;;;;;;;;;;;5085390;28;19919;-85
2022/07/01 04:27:22;;;;;;;;;;;;;;;;;;5086281;28;19915;-85
2022/07/01 04:30:08;;;;;;;;;;;;;;;;;;5079730;28;19930;-85
2022/07/01 04:32:55;;;;;;;;;;;;;;;;;;5071174;28;19944;-85
2022/07/01 04:35:41;;;;;;;;;;;;;;;;;;5070490;28;19908;-85
2022/07/01 04:38:28;;;;;;;;;;;;;;;;;;5068937;28;20279;-85
2022/07/01 04:44:19;;;;;;;;;;;;;;;;;;5063865;28;19923;-86
2022/07/01 04:47:06;;;;;;;;;;;;;;;;;;5057619;28;19920;-84
2022/07/01 04:49:52;;;;;;;;;;;;;;;;;;5063739;28;19921;-85
2022/07/01 04:52:39;;;;;;;;;;;;;;;;;;5064642;28;19917;-85
2022/07/01 04:55:25;;;;;;;;;;;;;;;;;;5049245;28;19917;-84
2022/07/01 04:58:11;;;;;;;;;;;;;;;;;;5071685;28;20364;-85
2022/07/01 05:00:58;;;;;;;;;;;;;;;;;;5059800;28;19913;-84
2022/07/01 05:03:44;;;;;;;;;;;;;;;;;;5054661;28;19909;-85
2022/07/01 05:06:31;;;;;;;;;;;;;;;;;;5051559;28;19920;-85
2022/07/01 05:09:17;;;;;;;;;;;;;;;;;;5055604;28;20377;-85
2022/07/01 05:12:04;;;;;;;;;;;;;;;;;;5067412;28;19919;-85
2022/07/01 05:14:50;;;;;;;;;;;;;;;;;;5066898;28;20391;-84
2022/07/01 05:23:47;;;;;;;;;;;;;;;;;;5065016;28;20268;-84
2022/07/01 05:26:34;;;;;;;;;;;;;;;;;;5059326;28;19920;-85
2022/07/01 05:29:20;;;;;;;;;;;;;;;;;;5044957;28;20295;-83
2022/07/01 05:32:07;;;;;;;;;;;;;;;;;;5060256;28;19916;-82
2022/07/01 05:34:53;;;;;;;;;;;;;;;;;;5052463;28;20298;-82
2022/07/01 05:37:40;;;;;;;;;;;;;;;;;;5053453;28;19916;-84
2022/07/01 05:40:26;;;;;;;;;;;;;;;;;;5069252;28;19912;-83
2022/07/01 05:43:13;;;;;;;;;;;;;;;;;;5043135;28;19934;-83
2022/07/01 05:45:59;;;;;;;;;;;;;;;;;;5060993;28;19917;-82
2022/07/01 05:48:45;;;;;;;;;;;;;;;;;;5050251;28;19916;-83
2022/07/01 05:51:32;;;;;;;;;;;;;;;;;;5060726;28;20384;-83
2022/07/01 05:54:18;;;;;;;;;;;;;;;;;;5057027;28;19917;-82
2022/07/01 05:57:05;;;;;;;;;;;;;;;;;;5055185;28;20526;-84
2022/07/01 05:59:51;;;;;;;;;;;;;;;;;;5064173;28;19909;-83
2022/07/01 06:02:38;;;;;;;;;;;;;;;;;;5050968;28;19931;-85
2022/07/01 06:05:24;;;;;;;;;;;;;;;;;;5078390;28;19909;-84
2022/07/01 06:08:13;;;;;;;;;;;;;;;;;;5066275;28;20639;-84
2022/07/01 06:10:59;;;;;;;;;;;;;;;;;;5062734;28;19916;-84
2022/07/01 06:13:46;;;;;;;;;;;;;;;;;;5048255;28;19913;-85
2022/07/01 06:16:32;;;;;;;;;;;;;;;;;;5059662;28;19917;-84
2022/07/01 06:19:19;;;;;;;;;;;;;;;;;;5057716;28;19923;-84
2022/07/01 06:22:06;;;;;;;;;;;;;;;;;;5056208;28;19915;-84
2022/07/01 06:24:52;;;;;;;;;;;;;;;;;;5063553;28;19909;-85
2022/07/01 06:27:39;;;;;;;;;;;;;;;;;;5054858;28;19916;-86
2022/07/01 06:30:26;;;;;;;;;;;;;;;;;;5036441;28;19926;-84
2022/07/01 06:33:12;;;;;;;;;;;;;;;;;;5052113;28;19916;-84
2022/07/01 06:35:59;;;;;;;;;;;;;;;;;;5064856;28;20415;-84
2022/07/01 06:38:45;;;;;;;;;;;;;;;;;;5066669;28;20345;-84
2022/07/01 06:41:32;;;;;;;;;;;;;;;;;;5063025;28;19931;-84
2022/07/01 06:44:18;;;;;;;;;;;;;;;;;;5046529;28;19919;-84
2022/07/01 06:47:04;;;;;;;;;;;;;;;;;;5037091;28;20288;-85
2022/07/01 06:49:51;;;;;;;;;;;;;;;;;;5053053;28;19921;-85
2022/07/01 06:52:37;;;;;;;;;;;;;;;;;;5045139;28;19930;-84
2022/07/01 06:55:24;;;;;;;;;;;;;;;;;;5063273;28;20372;-85
2022/07/01 06:58:10;;;;;;;;;;;;;;;;;;5061595;28;19909;-85
2022/07/01 07:00:57;;;;;;;;;;;;;;;;;;5050659;28;20326;-85
2022/07/01 07:03:43;;;;;;;;;;;;;;;;;;5059153;28;19919;-86
2022/07/01 07:06:30;;;;;;;;;;;;;;;;;;5055007;28;19920;-85
2022/07/01 07:09:16;;;;;;;;;;;;;;;;;;5045178;28;20368;-86
2022/07/01 07:12:03;;;;;;;;;;;;;;;;;;5062624;28;19913;-85
2022/07/01 07:14:49;;;;;;;;;;;;;;;;;;5059515;28;20403;-78
2022/07/01 07:17:36;;;;;;;;;;;;;;;;;;5057503;28;19982;-78
2022/07/01 07:20:22;;;;;;;;;;;;;;;;;;5058656;28;19909;-78
2022/07/01 07:23:09;;;;;;;;;;;;;;;;;;5059004;28;19919;-78
2022/07/01 07:25:56;;;;;;;;;;;;;;;;;;5069366;28;19913;-78
2022/07/01 07:28:42;;;;;;;;;;;;;;;;;;5052950;28;19917;-79
2022/07/01 07:31:29;;;;;;;;;;;;;;;;;;5078492;28;19921;-78
2022/07/01 07:34:15;;;;;;;;;;;;;;;;;;5067579;28;20372;-80
2022/07/01 07:37:02;;;;;;;;;;;;;;;;;;5060961;28;19919;-80
2022/07/01 07:39:48;;;;;;;;;;;;;;;;;;5057561;28;20281;-87
2022/07/01 07:42:35;;;;;;;;;;;;;;;;;;5054328;28;19919;-89
2022/07/01 07:45:21;;;;;;;;;;;;;;;;;;5057612;28;19916;-88
2022/07/01 07:48:09;;;;;;;;;;;;;;;;;;5065717;28;19909;-90
2022/07/01 07:50:56;;;;;;;;;;;;;;;;;;5054099;28;19919;-84
2022/07/01 07:53:42;;;;;;;;;;;;;;;;;;5061632;28;19916;-84
2022/07/01 07:56:29;;;;;;;;;;;;;;;;;;5058619;28;20638;-85
2022/07/01 07:59:15;;;;;;;;;;;;;;;;;;5043588;28;19915;-87
2022/07/01 08:02:02;;;;;;;;;;;;;;;;;;5056825;28;19912;-85
2022/07/01 08:04:48;;;;;;;;;;;;;;;;;;5054598;28;19939;-81
2022/07/01 08:07:35;;;;;;;;;;;;;;;;;;5059644;28;19927;-80
2022/07/01 08:10:21;;;;;;;;;;;;;;;;;;5063885;28;19928;-80
2022/07/01 08:13:08;;;;;;;;;;;;;;;;;;5064763;28;20376;-82
2022/07/01 08:15:54;;;;;;;;;;;;;;;;;;5062293;28;19913;-83
2022/07/01 08:18:41;;;;;;;;;;;;;;;;;;5045381;28;20360;-83
2022/07/01 08:21:27;;;;;;;;;;;;;;;;;;5054976;28;19909;-82
2022/07/01 08:24:14;;;;;;;;;;;;;;;;;;5061988;28;20272;-83
2022/07/01 08:27:00;;;;;;;;;;;;;;;;;;5066015;28;19986;-83
2022/07/01 08:29:47;;;;;;;;;;;;;;;;;;5054830;28;19916;-82
2022/07/01 08:32:33;;;;;;;;;;;;;;;;;;5069258;28;19908;-83
2022/07/01 08:35:19;;;;;;;;;;;;;;;;;;5055577;28;20288;-82
2022/07/01 08:38:06;;;;;;;;;;;;;;;;;;5056344;28;19917;-81
2022/07/01 08:40:52;;;;;;;;;;;;;;;;;;5042350;28;19913;-82
2022/07/01 08:43:39;;;;;;;;;;;;;;;;;;5056411;28;20292;-85
2022/07/01 08:46:26;;;;;;;;;;;;;;;;;;5060184;28;19908;-80
2022/07/01 08:49:13;;;;;;;;;;;;;;;;;;5060386;28;20295;-82
2022/07/01 08:51:59;;;;;;;;;;;;;;;;;;5062899;28;20324;-83
2022/07/01 08:54:46;;;;;;;;;;;;;;;;;;5062243;28;19920;-82
2022/07/01 08:57:32;;;;;;;;;;;;;;;;;;5062854;28;19920;-84
2022/07/01 09:00:18;;;;;;;;;;;;;;;;;;5065272;28;20458;-83
2022/07/01 09:03:05;;;;;;;;;;;;;;;;;;5061987;28;19908;-81
2022/07/01 09:05:51;;;;;;;;;;;;;;;;;;5058831;28;19916;-81
2022/07/01 09:08:38;;;;;;;;;;;;;;;;;;5054856;28;19916;-81
2022/07/01 09:11:24;;;;;;;;;;;;;;;;;;5065605;28;19913;-83
2022/07/01 09:14:11;;;;;;;;;;;;;;;;;;5056039;28;19912;-82
2022/07/01 09:17:00;;;;;;;;;;;;;;;;;;5062680;28;19928;-81
2022/07/01 09:19:47;;;;;;;;;;;;;;;;;;5065388;28;20367;-79
2022/07/01 09:22:33;;;;;;;;;;;;;;;;;;5054372;28;19921;-80
2022/07/01 09:25:20;;;;;;;;;;;;;;;;;;5066824;28;19916;-87
2022/07/01 09:28:06;;;;;;;;;;;;;;;;;;5065083;28;20392;-84
2022/07/01 09:30:53;;;;;;;;;;;;;;;;;;5057638;28;20595;-85
2022/07/01 09:33:39;;;;;;;;;;;;;;;;;;5052959;28;19933;-84
2022/07/01 09:36:26;;;;;;;;;;;;;;;;;;5039961;28;19995;-84
2022/07/01 09:39:12;;;;;;;;;;;;;;;;;;5065291;28;19908;-84
2022/07/01 09:41:59;;;;;;;;;;;;;;;;;;5059579;28;19913;-82
2022/07/01 09:44:45;;;;;;;;;;;;;;;;;;5067876;28;19908;-79
2022/07/01 09:47:31;;;;;;;;;;;;;;;;;;5068632;28;19919;-83
2022/07/01 09:50:18;;;;;;;;;;;;;;;;;;5063513;28;19924;-85
2022/07/01 09:53:06;;;;;;;;;;;;;;;;;;5068282;28;19912;-84
2022/07/01 09:55:52;;;;;;;;;;;;;;;;;;5054482;28;19934;-81
2022/07/01 09:58:39;;;;;;;;;;;;;;;;;;5068102;28;19913;-79
2022/07/01 10:01:25;;;;;;;;;;;;;;;;;;5069178;28;19908;-82
2022/07/01 10:04:12;;;;;;;;;;;;;;;;;;5069159;28;19930;-86
2022/07/01 10:06:58;;;;;;;;;;;;;;;;;;5051476;28;19927;-87
2022/07/01 10:09:45;;;;;;;;;;;;;;;;;;5038567;28;19932;-87
2022/07/01 10:12:31;;;;;;;;;;;;;;;;;;5056821;28;19935;-87
2022/07/01 10:15:18;;;;;;;;;;;;;;;;;;5068896;28;19919;-87
2022/07/01 10:18:04;;;;;;;;;;;;;;;;;;5068887;28;19909;-87
2022/07/01 10:20:51;;;;;;;;;;;;;;;;;;5052304;28;19908;-82
2022/07/01 10:23:37;;;;;;;;;;;;;;;;;;5068510;28;20287;-83
2022/07/01 10:26:24;;;;;;;;;;;;;;;;;;5054238;28;19913;-83
2022/07/01 10:29:10;;;;;;;;;;;;;;;;;;5056772;28;19921;-78
2022/07/01 10:31:57;;;;;;;;;;;;;;;;;;5060280;28;20284;-77
2022/07/01 10:34:43;;;;;;;;;;;;;;;;;;5062603;28;19908;-77
2022/07/01 10:37:30;;;;;;;;;;;;;;;;;;5067106;28;20365;-77
2022/07/01 10:40:16;;;;;;;;;;;;;;;;;;5069404;28;19908;-77
2022/07/01 10:43:03;;;;;;;;;;;;;;;;;;5064458;28;19909;-76
2022/07/01 10:45:49;;;;;;;;;;;;;;;;;;5069284;28;19909;-76
2022/07/01 10:48:36;;;;;;;;;;;;;;;;;;5077522;28;19999;-77
2022/07/01 10:51:22;;;;;;;;;;;;;;;;;;5062489;28;19912;-76
2022/07/01 10:54:09;;;;;;;;;;;;;;;;;;5071504;28;20407;-76
2022/07/01 10:56:55;;;;;;;;;;;;;;;;;;5070122;28;19923;-76
2022/07/01 10:59:42;;;;;;;;;;;;;;;;;;5055709;28;20377;-76
2022/07/01 11:02:28;;;;;;;;;;;;;;;;;;5053551;28;19917;-76
2022/07/01 11:05:14;;;;;;;;;;;;;;;;;;5051575;28;19912;-76
2022/07/01 11:08:01;;;;;;;;;;;;;;;;;;5067914;28;19924;-76
2022/07/01 11:10:47;;;;;;;;;;;;;;;;;;5067925;28;19924;-76
2022/07/01 11:13:34;;;;;;;;;;;;;;;;;;5060495;28;19909;-76
2022/07/01 11:16:20;;;;;;;;;;;;;;;;;;5065338;28;19912;-77
2022/07/01 11:19:07;;;;;;;;;;;;;;;;;;5057667;28;19908;-76
2022/07/01 11:21:53;;;;;;;;;;;;;;;;;;5057499;28;20385;-76
2022/07/01 11:24:40;;;;;;;;;;;;;;;;;;5070509;28;19917;-76
2022/07/01 11:27:26;;;;;;;;;;;;;;;;;;5064778;28;20400;-76
2022/07/01 11:30:13;;;;;;;;;;;;;;;;;;5059416;28;19923;-76
2022/07/01 11:32:59;;;;;;;;;;;;;;;;;;5068706;28;19913;-76
2022/07/01 11:41:56;;;;;;;;;;;;;;;;;;5056173;28;20387;-76
2022/07/01 11:44:43;;;;;;;;;;;;;;;;;;5059942;28;20305;-76
2022/07/01 11:47:29;;;;;;;;;;;;;;;;;;5048594;28;19920;-76
2022/07/01 11:50:16;;;;;;;;;;;;;;;;;;5066609;28;20383;-76
2022/07/01 11:53:02;;;;;;;;;;;;;;;;;;5064325;28;19916;-77
2022/07/01 11:55:49;;;;;;;;;;;;;;;;;;5067854;28;19915;-76
2022/07/01 11:58:35;;;;;;;;;;;;;;;;;;5063605;28;19913;-77
2022/07/01 12:01:22;;;;;;;;;;;;;;;;;;5044549;28;20383;-77
2022/07/01 12:04:08;;;;;;;;;;;;;;;;;;5057829;28;19916;-77
2022/07/01 12:06:55;;;;;;;;;;;;;;;;;;5068670;28;19927;-77
2022/07/01 12:09:41;;;;;;;;;;;;;;;;;;5058738;28;19920;-79
2022/07/01 12:12:28;;;;;;;;;;;;;;;;;;5052480;28;19951;-77
2022/07/01 12:15:14;;;;;;;;;;;;;;;;;;5050392;28;19962;-77
2022/07/01 12:18:01;;;;;;;;;;;;;;;;;;5066082;28;19924;-77
2022/07/01 12:20:47;;;;;;;;;;;;;;;;;;5067362;28;20357;-77
2022/07/01 12:23:36;;;;;;;;;;;;;;;;;;5068877;28;19913;-78
2022/07/01 12:26:22;;;;;;;;;;;;;;;;;;5067381;28;20276;-77
2022/07/01 12:29:09;;;;;;;;;;;;;;;;;;5061376;28;19921;-77
2022/07/01 12:31:55;;;;;;;;;;;;;;;;;;5064554;28;20277;-77
2022/07/01 12:34:42;;;;;;;;;;;;;;;;;;5054826;28;19915;-77
2022/07/01 12:37:28;;;;;;;;;;;;;;;;;;5057347;28;19920;-77
2022/07/01 12:40:14;;;;;;;;;;;;;;;;;;5052077;28;19939;-77
2022/07/01 12:43:06;;;;;;;;;;;;;;;;;;5067528;28;19927;-77
2022/07/01 12:45:52;;;;;;;;;;;;;;;;;;5073013;28;19908;-77
2022/07/01 12:48:39;;;;;;;;;;;;;;;;;;5064189;28;19912;-82
2022/07/01 12:51:25;;;;;;;;;;;;;;;;;;5056725;28;19910;-77
2022/07/01 12:54:12;;;;;;;;;;;;;;;;;;5059007;28;19916;-77
2022/07/01 12:56:58;;;;;;;;;;;;;;;;;;5065743;28;19909;-77
2022/07/01 12:59:45;;;;;;;;;;;;;;;;;;5051907;28;19941;-77
2022/07/01 13:02:31;;;;;;;;;;;;;;;;;;5068432;28;20425;-77
2022/07/01 13:05:18;;;;;;;;;;;;;;;;;;5053361;28;19909;-77
2022/07/01 13:08:04;;;;;;;;;;;;;;;;;;5057654;28;19947;-77
2022/07/01 13:10:51;;;;;;;;;;;;;;;;;;5061691;28;19924;-77
2022/07/01 13:13:37;;;;;;;;;;;;;;;;;;5061973;28;19919;-77
2022/07/01 13:16:24;;;;;;;;;;;;;;;;;;5065571;28;19912;-77
2022/07/01 13:19:10;;;;;;;;;;;;;;;;;;5060345;28;19924;-77
2022/07/01 13:21:56;;;;;;;;;;;;;;;;;;5040107;28;19909;-77
2022/07/01 13:24:43;;;;;;;;;;;;;;;;;;5068646;28;20269;-78
2022/07/01 13:27:29;;;;;;;;;;;;;;;;;;5047205;28;20272;-77
2022/07/01 13:30:16;;;;;;;;;;;;;;;;;;5057538;28;19939;-77
2022/07/01 13:33:03;;;;;;;;;;;;;;;;;;5066787;28;19913;-77
2022/07/01 13:35:49;;;;;;;;;;;;;;;;;;5066645;28;19920;-77
2022/07/01 13:38:35;;;;;;;;;;;;;;;;;;5061194;28;19923;-77
2022/07/01 13:41:23;;;;;;;;;;;;;;;;;;5073663;28;19916;-77
2022/07/01 13:44:10;;;;;;;;;;;;;;;;;;5064097;28;19927;-77
2022/07/01 13:46:56;;;;;;;;;;;;;;;;;;5061768;28;20375;-77
2022/07/01 13:49:43;;;;;;;;;;;;;;;;;;5051196;28;19916;-78
2022/07/01 13:52:29;;;;;;;;;;;;;;;;;;5056342;28;19913;-77
2022/07/01 13:55:16;;;;;;;;;;;;;;;;;;5056948;28;19908;-77
2022/07/01 13:58:02;;;;;;;;;;;;;;;;;;5068393;28;19918;-77
2022/07/01 14:00:49;;;;;;;;;;;;;;;;;;5035381;28;19913;-77
2022/07/01 14:03:35;;;;;;;;;;;;;;;;;;5049594;28;19924;-77
2022/07/01 14:06:22;;;;;;;;;;;;;;;;;;5049484;28;19921;-77
2022/07/01 14:09:08;;;;;;;;;;;;;;;;;;5059673;28;19927;-77
2022/07/01 14:11:55;;;;;;;;;;;;;;;;;;5058436;28;20117;-77
2022/07/01 14:14:41;;;;;;;;;;;;;;;;;;5062230;28;20410;-77
2022/07/01 14:17:29;;;;;;;;;;;;;;;;;;5064355;28;19916;-77
2022/07/01 14:20:15;;;;;;;;;;;;;;;;;;5058759;28;19908;-77
2022/07/01 14:23:01;;;;;;;;;;;;;;;;;;5057451;28;19917;-77
2022/07/01 14:25:48;;;;;;;;;;;;;;;;;;5068387;28;19908;-77
2022/07/01 14:28:34;;;;;;;;;;;;;;;;;;5057418;28;20260;-77
2022/07/01 14:31:21;;;;;;;;;;;;;;;;;;5040090;28;19920;-77
2022/07/01 14:34:07;;;;;;;;;;;;;;;;;;5067963;28;19976;-77
2022/07/01 14:36:54;;;;;;;;;;;;;;;;;;5063502;28;19916;-77
2022/07/01 14:39:40;;;;;;;;;;;;;;;;;;5058714;28;19936;-77
2022/07/01 14:42:27;;;;;;;;;;;;;;;;;;5053394;28;19978;-77
2022/07/01 14:45:13;;;;;;;;;;;;;;;;;;5056898;28;20276;-77
2022/07/01 14:48:00;;;;;;;;;;;;;;;;;;5050585;28;19919;-77
2022/07/01 14:50:46;;;;;;;;;;;;;;;;;;5059116;28;19923;-77
2022/07/01 14:53:33;;;;;;;;;;;;;;;;;;5058358;28;19919;-78
2022/07/01 14:56:19;;;;;;;;;;;;;;;;;;5050944;28;19912;-81
2022/07/01 14:59:06;;;;;;;;;;;;;;;;;;5053154;28;19919;-81
2022/07/01 15:01:54;;;;;;;;;;;;;;;;;;5067375;28;19931;-80
2022/07/01 15:04:41;;;;;;;;;;;;;;;;;;5058784;28;19916;-79
2022/07/01 15:07:28;;;;;;;;;;;;;;;;;;5051912;28;19921;-80
2022/07/01 15:10:14;;;;;;;;;;;;;;;;;;5060341;28;19917;-80
2022/07/01 15:13:01;;;;;;;;;;;;;;;;;;5061429;28;19919;-81
2022/07/01 15:15:47;;;;;;;;;;;;;;;;;;5055889;28;19909;-82
2022/07/01 15:18:34;;;;;;;;;;;;;;;;;;5049366;28;20478;-80
2022/07/01 15:21:20;;;;;;;;;;;;;;;;;;5057945;28;19909;-81
2022/07/01 15:24:06;;;;;;;;;;;;;;;;;;5067538;28;19915;-81
2022/07/01 15:26:53;;;;;;;;;;;;;;;;;;5060301;28;19919;-80
2022/07/01 15:29:39;;;;;;;;;;;;;;;;;;5051727;28;20304;-79
2022/07/01 15:32:26;;;;;;;;;;;;;;;;;;5063480;28;19913;-78
2022/07/01 15:35:13;;;;;;;;;;;;;;;;;;5059206;28;20257;-77
2022/07/01 15:37:59;;;;;;;;;;;;;;;;;;5068072;28;19913;-76
2022/07/01 15:40:46;;;;;;;;;;;;;;;;;;5069482;28;19919;-78
2022/07/01 15:43:32;;;;;;;;;;;;;;;;;;5072514;28;19994;-77
2022/07/01 15:46:19;;;;;;;;;;;;;;;;;;5067464;28;19927;-77
2022/07/01 15:49:09;;;;;;;;;;;;;;;;;;5068503;28;20297;-76
2022/07/01 15:51:55;;;;;;;;;;;;;;;;;;5065537;28;20303;-76
2022/07/01 15:54:41;;;;;;;;;;;;;;;;;;5066487;28;19919;-77
2022/07/01 15:57:28;;;;;;;;;;;;;;;;;;5067756;28;19912;-76
2022/07/01 16:00:14;;;;;;;;;;;;;;;;;;5069196;28;19909;-77
2022/07/01 16:03:01;;;;;;;;;;;;;;;;;;5057491;28;19938;-76
2022/07/01 16:05:48;;;;;;;;;;;;;;;;;;5055019;28;19959;-77
2022/07/01 16:08:34;;;;;;;;;;;;;;;;;;5069330;28;19919;-77
2022/07/01 16:11:21;;;;;;;;;;;;;;;;;;5062897;28;19916;-77
2022/07/01 16:14:08;;;;;;;;;;;;;;;;;;5067663;28;19919;-78
2022/07/01 16:16:55;;;;;;;;;;;;;;;;;;5065085;28;19917;-79
2022/07/01 16:19:41;;;;;;;;;;;;;;;;;;5054205;28;20304;-77
2022/07/01 16:22:28;;;;;;;;;;;;;;;;;;5058051;28;19908;-78
2022/07/01 16:25:14;;;;;;;;;;;;;;;;;;5061624;28;19919;-78
2022/07/01 16:28:01;;;;;;;;;;;;;;;;;;5055746;28;19924;-78
2022/07/01 16:30:47;;;;;;;;;;;;;;;;;;5056728;28;19943;-79
2022/07/01 16:33:34;;;;;;;;;;;;;;;;;;5071241;28;19927;-79
2022/07/01 16:36:20;;;;;;;;;;;;;;;;;;5062822;28;19908;-79
2022/07/01 16:39:09;;;;;;;;;;;;;;;;;;5050348;28;19909;-78
2022/07/01 16:41:55;;;;;;;;;;;;;;;;;;5063222;28;19930;-80
2022/07/01 16:44:44;;;;;;;;;;;;;;;;;;5063533;28;19909;-83
2022/07/01 16:47:30;;;;;;;;;;;;;;;;;;5050930;28;19915;-86
2022/07/01 16:50:17;;;;;;;;;;;;;;;;;;5064238;28;19916;-79
2022/07/01 16:53:03;;;;;;;;;;;;;;;;;;5051238;28;20423;-80
2022/07/01 16:55:50;;;;;;;;;;;;;;;;;;5063612;28;19920;-77
2022/07/01 16:58:36;;;;;;;;;;;;;;;;;;5057189;28;19927;-79
2022/07/01 17:01:23;;;;;;;;;;;;;;;;;;5057132;28;20373;-78
2022/07/01 17:04:10;;;;;;;;;;;;;;;;;;5052621;28;19924;-79
2022/07/01 17:06:56;;;;;;;;;;;;;;;;;;5059544;28;19928;-78
2022/07/01 17:09:44;;;;;;;;;;;;;;;;;;5051205;28;19932;-78
2022/07/01 17:12:30;;;;;;;;;;;;;;;;;;5055762;28;19909;-78
2022/07/01 17:15:17;;;;;;;;;;;;;;;;;;5056202;28;19913;-78
2022/07/01 17:18:04;;;;;;;;;;;;;;;;;;5046251;28;20743;-81
2022/07/01 17:20:50;;;;;;;;;;;;;;;;;;5062364;28;20399;-80
2022/07/01 17:23:38;;;;;;;;;;;;;;;;;;5056163;28;19915;-76
2022/07/01 17:26:25;;;;;;;;;;;;;;;;;;5062188;28;19923;-82
2022/07/01 17:29:11;;;;;;;;;;;;;;;;;;5052892;28;19923;-79
2022/07/01 17:31:58;;;;;;;;;;;;;;;;;;5063516;28;19915;-77
2022/07/01 17:34:46;;;;;;;;;;;;;;;;;;5051869;28;19923;-77
2022/07/01 17:37:32;;;;;;;;;;;;;;;;;;5055092;28;19908;-82
2022/07/01 17:40:19;;;;;;;;;;;;;;;;;;5070086;28;19932;-82
2022/07/01 17:43:05;;;;;;;;;;;;;;;;;;5065051;28;19913;-82
2022/07/01 17:45:52;;;;;;;;;;;;;;;;;;5051555;28;19952;-82
2022/07/01 17:48:38;;;;;;;;;;;;;;;;;;5064307;28;19916;-81
2022/07/01 17:51:25;;;;;;;;;;;;;;;;;;5062714;28;19920;-82
2022/07/01 17:54:12;;;;;;;;;;;;;;;;;;5054545;28;19913;-82
2022/07/01 17:56:58;;;;;;;;;;;;;;;;;;5060201;28;20368;-83
2022/07/01 17:59:45;;;;;;;;;;;;;;;;;;5054867;28;19919;-81
2022/07/01 18:02:31;;;;;;;;;;;;;;;;;;5053395;28;20591;-79
2022/07/01 18:05:17;;;;;;;;;;;;;;;;;;5060255;28;19922;-80
2022/07/01 18:08:05;;;;;;;;;;;;;;;;;;5061254;28;19933;-79
2022/07/01 18:10:52;;;;;;;;;;;;;;;;;;5060013;28;20474;-79
2022/07/01 18:13:38;;;;;;;;;;;;;;;;;;5058908;28;19920;-79
2022/07/01 18:16:24;;;;;;;;;;;;;;;;;;5062161;28;19928;-80
2022/07/01 18:19:11;;;;;;;;;;;;;;;;;;5065639;28;20015;-80
2022/07/01 18:21:57;;;;;;;;;;;;;;;;;;5065257;28;19908;-80
2022/07/01 18:24:44;;;;;;;;;;;;;;;;;;5059504;28;19912;-79
2022/07/01 18:27:31;;;;;;;;;;;;;;;;;;5055943;28;19913;-78
2022/07/01 18:30:17;;;;;;;;;;;;;;;;;;5054923;28;19924;-81
2022/07/01 18:33:04;;;;;;;;;;;;;;;;;;5056910;28;19941;-79
2022/07/01 18:35:50;;;;;;;;;;;;;;;;;;5054611;28;19920;-80
2022/07/01 18:38:36;;;;;;;;;;;;;;;;;;5068495;28;19915;-77
2022/07/01 18:41:23;;;;;;;;;;;;;;;;;;5063795;28;19916;-79
2022/07/01 18:44:10;;;;;;;;;;;;;;;;;;5064963;28;19916;-78
2022/07/01 18:46:56;;;;;;;;;;;;;;;;;;5050279;28;19908;-78
2022/07/01 18:49:43;;;;;;;;;;;;;;;;;;5054428;28;19928;-78
2022/07/01 18:52:29;;;;;;;;;;;;;;;;;;5067584;28;19912;-78
2022/07/01 18:55:15;;;;;;;;;;;;;;;;;;5062293;28;20614;-77
2022/07/01 18:58:02;;;;;;;;;;;;;;;;;;5058462;28;19917;-79
2022/07/01 19:00:49;;;;;;;;;;;;;;;;;;5055727;28;19991;-79
2022/07/01 19:03:37;;;;;;;;;;;;;;;;;;5058320;28;19913;-81
2022/07/01 19:06:23;;;;;;;;;;;;;;;;;;5049882;28;19921;-77
2022/07/01 19:09:10;;;;;;;;;;;;;;;;;;5064830;28;19920;-76
2022/07/01 19:11:56;;;;;;;;;;;;;;;;;;5056314;28;19920;-77
2022/07/01 19:14:43;;;;;;;;;;;;;;;;;;5059288;28;19913;-78
2022/07/01 19:17:29;;;;;;;;;;;;;;;;;;5061703;28;19919;-76